Neftekamsk, Russia
Current Conditions -  °F | °C
As of 1:30 PM on Friday 28 Nov 2014 (Local Time) from UWKE Reporting Station
Overcast Overcast  
Wind Chill:   Ceiling: 1000
Heat Index: 19°   Visibility: 6mi
Dew Point: 18°   Wind: 9mph
Humidity: 93%   Direction: 240°WSW
Pressure: 30.59"   Gusts: NA
Location:  56.08°N, 54.27°E
Report Text: UWKE 280830Z 24004MPS 9999 OVC010 M07/M08 Q1036 NOSIG RMKQFE759/1012 21310050
Loading
Personal Weather Stations






























Interactive Weather Map New forecast layout! Learn more

10-Day Weather Forecast

Advertisements
Track Severe Weather on mobile